»·PEaware :: SWA268 KCMA-KSLC

SWA268 :: KCMA-KSLC

FLIGHT INFORMATION

Flight Status: Arrived
Operator:
Southwest Airlines
More flights by this operator :: More flights under this callsign
Pilot: Steve F. (26981)
Aircraft: BOEING 737-700
(B737)
More flights by this aircraft type
Origin: KCMA Camarillo
United States
Destination: KSLC Salt Lake City Intl
United States
More flights between these airports :: More routes between these airports
Route: +MLF DELTA5
File this flight plan on PilotEdge
Remarks:
Altitude:
(Current/Filed)
39,000ft
Speed:
(Current/Filed)
430kts
Departed: 29-Jun-20 02:23 PM
Arrived: 29-Jun-20 03:45 PM
Distance/Time
Traveled:
520nm/1:22
Distance/Time
To Go:
Arrived

Flight Plot

Page will automatically refresh every two minutes.

Flight plan parsing failed; only flown route is shown


Map Options




Map Legend


Flown Route
Filed Route
Departure Airport
Arrival Airport
Navaid (VOR, NDB)
Fix

Horizontal Profiles

Position Reports

Time Latitude Longitude Heading Altitude Ground
Speed
29-Jun-20 14:03 34.210889 -119.095264 180 83ft 0kts
29-Jun-20 14:04 34.210889 -119.095264 180 83ft 0kts
29-Jun-20 14:05 34.210889 -119.095264 180 83ft 0kts
29-Jun-20 14:06 34.210889 -119.095264 180 83ft 0kts
29-Jun-20 14:07 34.210889 -119.095264 180 83ft 0kts
29-Jun-20 14:08 34.210889 -119.095264 180 83ft 0kts
29-Jun-20 14:09 34.210889 -119.095264 180 83ft 0kts
29-Jun-20 14:10 34.210889 -119.095264 180 83ft 0kts
29-Jun-20 14:11 34.210889 -119.095264 180 83ft 0kts
29-Jun-20 14:12 34.210889 -119.095264 180 83ft 0kts
29-Jun-20 14:13 34.210887 -119.095264 180 83ft 0kts
29-Jun-20 14:14 34.211256 -119.095542 27 82ft 10kts
29-Jun-20 14:15 34.211334 -119.088765 91 82ft 17kts
29-Jun-20 14:16 34.211323 -119.084811 73 82ft 2kts
29-Jun-20 14:17 34.212382 -119.084596 0 82ft 3kts
29-Jun-20 14:18 34.213005 -119.084593 0 83ft 0kts
29-Jun-20 14:19 34.213007 -119.084593 0 83ft 0kts
29-Jun-20 14:20 34.213009 -119.084593 0 83ft 0kts
29-Jun-20 14:21 34.213682 -119.084898 270 83ft 6kts
29-Jun-20 14:22 34.214275 -119.124612 271 1154ft 185kts
29-Jun-20 14:23 34.216614 -119.198047 283 3225ft 256kts
29-Jun-20 14:24 34.276929 -119.224612 34 6324ft 270kts
29-Jun-20 14:25 34.309962 -119.144162 67 9778ft 284kts
29-Jun-20 14:26 34.338928 -119.047919 68 12694ft 320kts
29-Jun-20 14:27 34.360499 -118.938274 73 15698ft 348kts
29-Jun-20 14:28 34.382610 -118.819099 73 18414ft 381kts
29-Jun-20 14:29 34.407858 -118.681978 74 19488ft 446kts
29-Jun-20 14:30 34.435469 -118.532273 74 21602ft 464kts
29-Jun-20 14:31 34.464101 -118.377565 75 23525ft 478kts
29-Jun-20 14:32 34.493185 -118.218023 75 25308ft 488kts
29-Jun-20 14:33 34.522456 -118.055830 75 26951ft 497kts
29-Jun-20 14:34 34.552121 -117.890047 75 28323ft 508kts
29-Jun-20 14:35 34.582235 -117.720299 75 29559ft 518kts
29-Jun-20 14:36 34.612504 -117.548189 75 30814ft 524kts
29-Jun-20 14:37 34.642741 -117.374749 75 32313ft 523kts
29-Jun-20 14:38 34.672573 -117.202101 75 33803ft 522kts
29-Jun-20 14:39 34.702021 -117.030147 75 35135ft 521kts
29-Jun-20 14:40 34.731311 -116.857526 75 36350ft 519kts
29-Jun-20 14:41 34.760300 -116.685740 75 37447ft 518kts
29-Jun-20 14:42 34.789742 -116.513816 69 38437ft 514kts
29-Jun-20 14:43 34.870696 -116.380097 30 38898ft 485kts
29-Jun-20 14:44 34.978317 -116.281750 29 38867ft 484kts
29-Jun-20 14:45 35.086281 -116.182781 29 38865ft 485kts
29-Jun-20 14:46 35.194139 -116.083898 28 38852ft 485kts
29-Jun-20 14:47 35.302037 -115.984644 28 38849ft 487kts
29-Jun-20 14:48 35.410887 -115.884029 28 38848ft 489kts
29-Jun-20 14:49 35.519341 -115.783392 28 38848ft 490kts
29-Jun-20 14:50 35.628115 -115.682102 28 38851ft 489kts
29-Jun-20 14:51 35.736764 -115.580570 28 38851ft 490kts
29-Jun-20 14:52 35.845280 -115.478801 28 38858ft 490kts
29-Jun-20 14:53 35.953753 -115.376719 29 38864ft 491kts
29-Jun-20 14:54 36.062575 -115.273944 29 38850ft 496kts
29-Jun-20 14:55 36.172560 -115.169690 30 38829ft 497kts
29-Jun-20 14:56 36.282531 -115.065067 30 38813ft 500kts
29-Jun-20 14:57 36.393119 -114.959479 31 38808ft 501kts
29-Jun-20 14:58 36.503635 -114.853558 31 38815ft 503kts
29-Jun-20 14:59 36.614335 -114.747078 32 38815ft 505kts
29-Jun-20 15:00 36.725712 -114.639536 32 38815ft 506kts
29-Jun-20 15:01 36.837045 -114.531635 33 38831ft 508kts
29-Jun-20 15:02 36.948898 -114.422821 33 38849ft 509kts
29-Jun-20 15:03 37.060831 -114.313423 34 38875ft 513kts
29-Jun-20 15:04 37.173911 -114.202786 34 38881ft 519kts
29-Jun-20 15:05 37.287826 -114.090521 34 38882ft 519kts
29-Jun-20 15:06 37.402285 -113.977391 35 38887ft 523kts
29-Jun-20 15:07 37.517325 -113.863285 36 38904ft 528kts
29-Jun-20 15:08 37.632424 -113.748642 36 38922ft 528kts
29-Jun-20 15:09 37.747153 -113.633844 36 38952ft 522kts
29-Jun-20 15:10 37.861956 -113.518608 36 38976ft 527kts
29-Jun-20 15:11 37.976452 -113.403163 36 38982ft 528kts
29-Jun-20 15:12 38.091460 -113.286796 37 38981ft 529kts
29-Jun-20 15:13 38.206367 -113.170532 37 38977ft 526kts
29-Jun-20 15:14 38.321125 -113.053556 38 38982ft 528kts
29-Jun-20 15:15 38.448798 -112.964604 20 38980ft 525kts
29-Jun-20 15:16 38.584464 -112.893753 20 38984ft 527kts
29-Jun-20 15:17 38.719680 -112.821459 21 38989ft 528kts
29-Jun-20 15:18 38.855481 -112.748284 21 38987ft 529kts
29-Jun-20 15:19 38.993177 -112.673568 20 36566ft 537kts
29-Jun-20 15:20 39.131958 -112.598552 19 33867ft 546kts
29-Jun-20 15:21 39.273745 -112.521158 20 31165ft 560kts
29-Jun-20 15:23 39.423361 -112.464840 10 28300ft 553kts
29-Jun-20 15:24 39.568204 -112.417186 10 25829ft 526kts
29-Jun-20 15:25 39.706277 -112.371250 10 22955ft 498kts
29-Jun-20 15:26 39.836204 -112.327810 11 20213ft 464kts
29-Jun-20 15:27 39.957107 -112.287096 11 17591ft 431kts
29-Jun-20 15:28 40.071262 -112.248570 11 17042ft 425kts
29-Jun-20 15:29 40.185865 -112.209752 11 17003ft 426kts
29-Jun-20 15:30 40.293286 -112.173154 11 16238ft 382kts
29-Jun-20 15:31 40.395823 -112.138211 13 14051ft 373kts
29-Jun-20 15:32 40.492231 -112.105290 13 12834ft 340kts
29-Jun-20 15:33 40.580616 -112.080793 2 11457ft 316kts
29-Jun-20 15:34 40.665086 -112.081176 352 11005ft 294kts
29-Jun-20 15:35 40.743839 -112.090066 354 10857ft 262kts
29-Jun-20 15:36 40.814709 -112.096302 354 9736ft 251kts
29-Jun-20 15:37 40.883884 -112.102499 354 8529ft 246kts
29-Jun-20 15:38 40.952006 -112.108653 354 8004ft 244kts
29-Jun-20 15:38 41.007797 -112.105358 31 7977ft 247kts
29-Jun-20 15:40 41.019482 -112.012049 134 6717ft 233kts
29-Jun-20 15:41 40.964994 -111.991317 182 6075ft 202kts
29-Jun-20 15:41 40.917841 -111.989609 177 6003ft 203kts
29-Jun-20 15:43 40.858550 -111.982914 176 5263ft 159kts
29-Jun-20 15:43 40.824972 -111.979004 172 4555ft 149kts
29-Jun-20 15:45 40.789189 -111.974731 174 4235ft 34kts
29-Jun-20 15:45 40.783850 -111.976143 275 4235ft 9kts
29-Jun-20 15:46 40.788807 -111.977246 269 4235ft 10kts
29-Jun-20 15:47 40.788773 -111.977840 264 4235ft 0kts

Navigation Log

Ident Type
Flight plan parsing failed, navigation log unavailable